Decoded Metar for KISM (KISSIMMEE/ORLAND in FL, USA) (IATA:ISM) | Meteo·Mobile Aviation Weather
aviador You're here:

KISM Decoded Metar

KISSIMMEE/ORLAND in FL, USA
Report Time2019-01-16 04:56:00
UTC Time2019-01-16 05:55:01
Flight Rules vfr VFR
Wind350° at 05 kt
W.Decomp.*RWY 33: 4.5 kt HW 2.1 kt RCW
RWY 06: 2.1 kt HW 4.5 kt LCW
W.Rank350° ranks 15
Current wind is below 350° avg. (6.6)
Visibility9999 m
Phenomena:N/A
Clouds:N/A
Expected CloudBase > 1,200 ft AGL from Temp-Dew spread
CeilingNone
Temp09°C (ISA -6)
Dew Point06°C (82% RH)
AAT6.3°C
QNH1024 hPa
Density Alt-863 ft
Elevation82 ft
Report Wrong Elevation
Raw Report
KISM 160456Z AUTO 35005KT 10SM CLR 09/06 A3025 RMK AO2 SLP245
T00890056 401500083 PNO $=

Extra information for KISM:More info

Metar Taf Metar & Taf Last 4 Metars F.Rules Stats Wind Profile Meteogram Temp Stats Airport Information Weather charts Add Link Nearby VenuesMetar ALERT Operation Metar Decoded Social comments

AIRNAV info for KISM